الصفحة الرئيسية
METAR-TAF:

METAR-TAF

مطار :

Newman, أستراليا

دائرة عرض: 23-25-04S, خط طول: 119-48-10E, ارتفاع: 525 متر

مراقبة الطقس الحالي

تاريخ ووقت الإصدار 35 دقيقة قبل الساعة 17:00UTC
ريح 13 عقدة من الشرق
درجة الحرارة 29°درجة مئوية
الرطوبة 37%
ضغط 1011 hPa
الرؤية: 9000 متر

METAR: YNWN 151700Z AUTO 10013KT 9000 // NCD 29/13 Q1011

زمن: 01:35 (17:35 UTC)


TAF: مفقودة

أرصاد الطقس والتوقعات من أكثر من 4000 مطار (تقارير الطقس للمطار METAR والتنبؤ بالطقس بالمطارTAF).

المحطات المتاحة هي النقط الصفراء والحمراء على الخريطة.

حرك المؤشر فوق النقطة لمعرفة اسم المحطة.

ثم انقر لمعرفة أرصاد وتوقعات الطقس.

لتغيير الخارطة: اضغط على الأزرار الخضراء مع رمز الصليب الأسود للتكبير. على الزر الأخضر مع شرطة للتصغير، أو على الأسهم الخضراء للخرائط المجاورة.


METAR-TAF: